sensor_id;sensor_type;location;lat;lon;timestamp;pressure;altitude;pressure_sealevel;temperature;humidity
26436;BME280;15351;52.408;16.826;2023-01-26T00:01:20;101712.08;;;4.56;79.26
26436;BME280;15351;52.408;16.826;2023-01-26T00:03:48;101708.86;;;4.56;79.00
26436;BME280;15351;52.408;16.826;2023-01-26T00:06:17;101707.08;;;4.51;78.92
26436;BME280;15351;52.408;16.826;2023-01-26T00:08:47;101704.97;;;4.43;78.94
26436;BME280;15351;52.408;16.826;2023-01-26T00:11:22;101705.10;;;4.42;79.06
26436;BME280;15351;52.408;16.826;2023-01-26T00:13:54;101704.59;;;4.41;79.24
26436;BME280;15351;52.408;16.826;2023-01-26T00:16:21;101701.36;;;4.44;79.52
26436;BME280;15351;52.408;16.826;2023-01-26T00:18:58;101703.54;;;4.51;79.41
26436;BME280;15351;52.408;16.826;2023-01-26T00:21:24;101707.11;;;4.56;79.33
26436;BME280;15351;52.408;16.826;2023-01-26T00:23:51;101702.52;;;4.55;79.23
26436;BME280;15351;52.408;16.826;2023-01-26T00:26:23;101704.32;;;4.55;79.31
26436;BME280;15351;52.408;16.826;2023-01-26T00:28:51;101701.05;;;4.56;79.10
26436;BME280;15351;52.408;16.826;2023-01-26T00:31:20;101700.75;;;4.55;79.05
26436;BME280;15351;52.408;16.826;2023-01-26T00:33:47;101697.58;;;4.55;79.14
26436;BME280;15351;52.408;16.826;2023-01-26T00:36:13;101691.22;;;4.54;79.24
26436;BME280;15351;52.408;16.826;2023-01-26T00:38:41;101687.48;;;4.54;79.21
26436;BME280;15351;52.408;16.826;2023-01-26T00:41:08;101683.46;;;4.48;78.99
26436;BME280;15351;52.408;16.826;2023-01-26T00:43:39;101684.77;;;4.44;79.25
26436;BME280;15351;52.408;16.826;2023-01-26T00:46:05;101682.55;;;4.46;79.15
26436;BME280;15351;52.408;16.826;2023-01-26T00:48:35;101680.79;;;4.41;79.29
26436;BME280;15351;52.408;16.826;2023-01-26T00:51:03;101682.70;;;4.39;79.31
26436;BME280;15351;52.408;16.826;2023-01-26T00:53:29;101678.00;;;4.37;79.55
26436;BME280;15351;52.408;16.826;2023-01-26T00:55:56;101677.20;;;4.33;79.42
26436;BME280;15351;52.408;16.826;2023-01-26T00:58:23;101682.24;;;4.30;79.50
26436;BME280;15351;52.408;16.826;2023-01-26T01:00:52;101684.91;;;4.30;79.64
26436;BME280;15351;52.408;16.826;2023-01-26T01:03:19;101682.16;;;4.34;79.83
26436;BME280;15351;52.408;16.826;2023-01-26T01:05:47;101677.54;;;4.36;79.70
26436;BME280;15351;52.408;16.826;2023-01-26T01:08:13;101675.00;;;4.34;79.62
26436;BME280;15351;52.408;16.826;2023-01-26T01:10:44;101674.46;;;4.32;79.63
26436;BME280;15351;52.408;16.826;2023-01-26T01:13:11;101676.08;;;4.30;79.63
26436;BME280;15351;52.408;16.826;2023-01-26T01:15:39;101672.90;;;4.27;79.80
26436;BME280;15351;52.408;16.826;2023-01-26T01:18:07;101672.13;;;4.30;80.05
26436;BME280;15351;52.408;16.826;2023-01-26T01:20:33;101669.59;;;4.33;79.87
26436;BME280;15351;52.408;16.826;2023-01-26T01:23:01;101666.44;;;4.30;79.78
26436;BME280;15351;52.408;16.826;2023-01-26T01:25:28;101659.55;;;4.29;79.95
26436;BME280;15351;52.408;16.826;2023-01-26T01:27:55;101653.45;;;4.30;80.09
26436;BME280;15351;52.408;16.826;2023-01-26T01:30:21;101655.86;;;4.31;80.14
26436;BME280;15351;52.408;16.826;2023-01-26T01:32:49;101656.11;;;4.34;79.92
26436;BME280;15351;52.408;16.826;2023-01-26T01:35:18;101654.53;;;4.34;79.94
26436;BME280;15351;52.408;16.826;2023-01-26T01:37:44;101656.84;;;4.32;79.95
26436;BME280;15351;52.408;16.826;2023-01-26T01:40:13;101654.15;;;4.32;80.09
26436;BME280;15351;52.408;16.826;2023-01-26T01:42:46;101650.16;;;4.38;80.26
26436;BME280;15351;52.408;16.826;2023-01-26T01:45:34;101652.81;;;4.43;80.14
26436;BME280;15351;52.408;16.826;2023-01-26T01:48:05;101652.27;;;4.51;80.05
26436;BME280;15351;52.408;16.826;2023-01-26T01:50:36;101646.77;;;4.45;79.79
26436;BME280;15351;52.408;16.826;2023-01-26T01:53:07;101645.48;;;4.46;79.79
26436;BME280;15351;52.408;16.826;2023-01-26T01:55:37;101638.80;;;4.47;79.82
26436;BME280;15351;52.408;16.826;2023-01-26T01:58:05;101630.42;;;4.47;79.75
26436;BME280;15351;52.408;16.826;2023-01-26T02:00:32;101626.80;;;4.48;79.80
26436;BME280;15351;52.408;16.826;2023-01-26T02:03:08;101620.33;;;4.49;79.87
26436;BME280;15351;52.408;16.826;2023-01-26T02:06:29;101619.65;;;4.54;79.84
26436;BME280;15351;52.408;16.826;2023-01-26T02:08:51;101615.75;;;4.56;79.58
26436;BME280;15351;52.408;16.826;2023-01-26T02:11:33;101609.54;;;4.53;79.52
26436;BME280;15351;52.408;16.826;2023-01-26T02:14:05;101606.66;;;4.54;79.65
26436;BME280;15351;52.408;16.826;2023-01-26T02:16:34;101605.13;;;4.55;79.66
26436;BME280;15351;52.408;16.826;2023-01-26T02:19:01;101597.24;;;4.60;79.62
26436;BME280;15351;52.408;16.826;2023-01-26T02:21:28;101599.41;;;4.66;79.48
26436;BME280;15351;52.408;16.826;2023-01-26T02:26:41;101590.70;;;4.62;79.26
26436;BME280;15351;52.408;16.826;2023-01-26T02:29:09;101587.50;;;4.60;79.19
26436;BME280;15351;52.408;16.826;2023-01-26T02:31:40;101584.73;;;4.54;79.06
26436;BME280;15351;52.408;16.826;2023-01-26T02:34:14;101583.95;;;4.52;79.14
26436;BME280;15351;52.408;16.826;2023-01-26T02:36:41;101582.63;;;4.51;79.18
26436;BME280;15351;52.408;16.826;2023-01-26T02:42:36;101574.13;;;4.50;79.43
26436;BME280;15351;52.408;16.826;2023-01-26T02:45:08;101576.74;;;4.53;79.44
26436;BME280;15351;52.408;16.826;2023-01-26T02:47:37;101575.57;;;4.52;79.32
26436;BME280;15351;52.408;16.826;2023-01-26T02:50:07;101572.38;;;4.52;79.44
26436;BME280;15351;52.408;16.826;2023-01-26T02:52:35;101569.31;;;4.52;79.60
26436;BME280;15351;52.408;16.826;2023-01-26T02:55:08;101570.85;;;4.54;79.35
26436;BME280;15351;52.408;16.826;2023-01-26T03:00:30;101567.59;;;4.47;79.45
26436;BME280;15351;52.408;16.826;2023-01-26T03:02:59;101566.41;;;4.49;79.51
26436;BME280;15351;52.408;16.826;2023-01-26T03:05:27;101562.99;;;4.51;79.64
26436;BME280;15351;52.408;16.826;2023-01-26T03:08:01;101563.55;;;4.56;79.48
26436;BME280;15351;52.408;16.826;2023-01-26T03:10:35;101564.31;;;4.60;79.31
26436;BME280;15351;52.408;16.826;2023-01-26T03:13:04;101562.10;;;4.57;79.15
26436;BME280;15351;52.408;16.826;2023-01-26T03:15:32;101558.23;;;4.53;79.25
26436;BME280;15351;52.408;16.826;2023-01-26T03:18:14;101554.03;;;4.52;79.44
26436;BME280;15351;52.408;16.826;2023-01-26T03:21:00;101552.93;;;4.50;79.19
26436;BME280;15351;52.408;16.826;2023-01-26T03:23:46;101553.86;;;4.47;79.16
26436;BME280;15351;52.408;16.826;2023-01-26T03:26:32;101548.85;;;4.45;79.34
26436;BME280;15351;52.408;16.826;2023-01-26T03:29:19;101546.52;;;4.45;79.49
26436;BME280;15351;52.408;16.826;2023-01-26T03:31:47;101542.76;;;4.50;79.51
26436;BME280;15351;52.408;16.826;2023-01-26T03:34:14;101544.48;;;4.57;79.38
26436;BME280;15351;52.408;16.826;2023-01-26T03:36:41;101542.70;;;4.59;79.27
26436;BME280;15351;52.408;16.826;2023-01-26T03:39:14;101540.04;;;4.59;79.46
26436;BME280;15351;52.408;16.826;2023-01-26T03:42:01;101535.55;;;4.59;79.48
26436;BME280;15351;52.408;16.826;2023-01-26T03:44:46;101532.72;;;4.61;79.34
26436;BME280;15351;52.408;16.826;2023-01-26T03:47:36;101528.43;;;4.59;79.19
26436;BME280;15351;52.408;16.826;2023-01-26T03:50:21;101523.80;;;4.56;79.27
26436;BME280;15351;52.408;16.826;2023-01-26T03:53:22;101522.99;;;4.60;79.34
26436;BME280;15351;52.408;16.826;2023-01-26T03:56:10;101520.64;;;4.61;79.17
26436;BME280;15351;52.408;16.826;2023-01-26T03:58:57;101519.77;;;4.58;79.03
26436;BME280;15351;52.408;16.826;2023-01-26T04:01:46;101518.31;;;4.56;79.12
26436;BME280;15351;52.408;16.826;2023-01-26T04:04:33;101514.40;;;4.56;79.32
26436;BME280;15351;52.408;16.826;2023-01-26T04:07:22;101514.10;;;4.58;79.31
26436;BME280;15351;52.408;16.826;2023-01-26T04:10:07;101514.16;;;4.57;79.19
26436;BME280;15351;52.408;16.826;2023-01-26T04:12:36;101515.85;;;4.60;79.26
26436;BME280;15351;52.408;16.826;2023-01-26T04:15:14;101512.88;;;4.64;79.27
26436;BME280;15351;52.408;16.826;2023-01-26T04:18:05;101507.51;;;4.62;79.20
26436;BME280;15351;52.408;16.826;2023-01-26T04:20:52;101506.27;;;4.64;79.08
26436;BME280;15351;52.408;16.826;2023-01-26T04:23:40;101509.17;;;4.63;78.99
26436;BME280;15351;52.408;16.826;2023-01-26T04:26:07;101505.86;;;4.56;78.90
26436;BME280;15351;52.408;16.826;2023-01-26T04:28:35;101505.18;;;4.48;79.10
26436;BME280;15351;52.408;16.826;2023-01-26T04:31:05;101503.70;;;4.47;79.21
26436;BME280;15351;52.408;16.826;2023-01-26T04:33:34;101506.61;;;4.43;79.12
26436;BME280;15351;52.408;16.826;2023-01-26T04:36:05;101503.14;;;4.45;79.24
26436;BME280;15351;52.408;16.826;2023-01-26T04:38:35;101492.95;;;4.45;79.40
26436;BME280;15351;52.408;16.826;2023-01-26T04:41:23;101484.13;;;4.46;79.68
26436;BME280;15351;52.408;16.826;2023-01-26T04:43:59;101479.02;;;4.48;79.49
26436;BME280;15351;52.408;16.826;2023-01-26T04:46:29;101484.51;;;4.46;79.48
26436;BME280;15351;52.408;16.826;2023-01-26T04:49:01;101475.15;;;4.50;79.56
26436;BME280;15351;52.408;16.826;2023-01-26T04:51:30;101474.98;;;4.52;79.44
26436;BME280;15351;52.408;16.826;2023-01-26T04:53:56;101473.48;;;4.53;79.60
26436;BME280;15351;52.408;16.826;2023-01-26T04:56:28;101471.24;;;4.55;79.56
26436;BME280;15351;52.408;16.826;2023-01-26T04:58:57;101470.05;;;4.54;79.34
26436;BME280;15351;52.408;16.826;2023-01-26T05:01:24;101468.64;;;4.49;79.40
26436;BME280;15351;52.408;16.826;2023-01-26T05:03:52;101471.67;;;4.49;79.58
26436;BME280;15351;52.408;16.826;2023-01-26T05:06:18;101473.65;;;4.51;79.64
26436;BME280;15351;52.408;16.826;2023-01-26T05:08:48;101477.64;;;4.57;79.50
26436;BME280;15351;52.408;16.826;2023-01-26T05:11:15;101478.09;;;4.58;79.30
26436;BME280;15351;52.408;16.826;2023-01-26T05:14:01;101475.43;;;4.58;79.34
26436;BME280;15351;52.408;16.826;2023-01-26T05:16:56;101477.32;;;4.56;79.39
26436;BME280;15351;52.408;16.826;2023-01-26T05:19:29;101480.80;;;4.58;79.44
26436;BME280;15351;52.408;16.826;2023-01-26T05:22:15;101476.48;;;4.58;79.30
26436;BME280;15351;52.408;16.826;2023-01-26T05:25:02;101471.40;;;4.57;79.40
26436;BME280;15351;52.408;16.826;2023-01-26T05:27:36;101469.33;;;4.56;79.37
26436;BME280;15351;52.408;16.826;2023-01-26T05:30:03;101467.71;;;4.54;79.47
26436;BME280;15351;52.408;16.826;2023-01-26T05:32:33;101465.20;;;4.52;79.34
26436;BME280;15351;52.408;16.826;2023-01-26T05:35:00;101461.61;;;4.50;79.18
26436;BME280;15351;52.408;16.826;2023-01-26T05:37:29;101460.14;;;4.48;79.28
26436;BME280;15351;52.408;16.826;2023-01-26T05:39:57;101470.05;;;4.46;79.37
26436;BME280;15351;52.408;16.826;2023-01-26T05:42:26;101468.84;;;4.44;79.30
26436;BME280;15351;52.408;16.826;2023-01-26T05:45:07;101468.09;;;4.42;79.37
26436;BME280;15351;52.408;16.826;2023-01-26T05:47:36;101466.02;;;4.41;79.28
26436;BME280;15351;52.408;16.826;2023-01-26T05:50:04;101468.17;;;4.34;79.20
26436;BME280;15351;52.408;16.826;2023-01-26T05:52:31;101468.63;;;4.32;79.38
26436;BME280;15351;52.408;16.826;2023-01-26T05:54:59;101463.98;;;4.32;79.54
26436;BME280;15351;52.408;16.826;2023-01-26T05:57:25;101460.55;;;4.29;79.52
26436;BME280;15351;52.408;16.826;2023-01-26T05:59:56;101457.45;;;4.22;79.47
26436;BME280;15351;52.408;16.826;2023-01-26T06:02:23;101455.94;;;4.19;79.68
26436;BME280;15351;52.408;16.826;2023-01-26T06:04:52;101457.55;;;4.21;79.83
26436;BME280;15351;52.408;16.826;2023-01-26T06:07:19;101459.00;;;4.28;79.99
26436;BME280;15351;52.408;16.826;2023-01-26T06:09:55;101458.79;;;4.31;79.83
26436;BME280;15351;52.408;16.826;2023-01-26T06:12:40;101462.86;;;4.33;79.68
26436;BME280;15351;52.408;16.826;2023-01-26T06:15:28;101460.30;;;4.37;79.74
26436;BME280;15351;52.408;16.826;2023-01-26T06:17:54;101463.59;;;4.45;79.75
26436;BME280;15351;52.408;16.826;2023-01-26T06:20:26;101460.86;;;4.48;79.52
26436;BME280;15351;52.408;16.826;2023-01-26T06:23:00;101456.41;;;4.48;79.25
26436;BME280;15351;52.408;16.826;2023-01-26T06:25:33;101456.39;;;4.41;79.25
26436;BME280;15351;52.408;16.826;2023-01-26T06:28:00;101459.05;;;4.39;79.32
26436;BME280;15351;52.408;16.826;2023-01-26T06:30:28;101463.93;;;4.38;79.49
26436;BME280;15351;52.408;16.826;2023-01-26T06:33:00;101459.88;;;4.40;79.67
26436;BME280;15351;52.408;16.826;2023-01-26T06:35:27;101466.71;;;4.41;79.42
26436;BME280;15351;52.408;16.826;2023-01-26T06:37:56;101460.21;;;4.40;79.39
26436;BME280;15351;52.408;16.826;2023-01-26T06:40:23;101452.88;;;4.43;79.48
26436;BME280;15351;52.408;16.826;2023-01-26T06:42:51;101455.59;;;4.45;79.67
26436;BME280;15351;52.408;16.826;2023-01-26T06:45:19;101451.67;;;4.45;79.47
26436;BME280;15351;52.408;16.826;2023-01-26T06:47:48;101454.30;;;4.47;79.28
26436;BME280;15351;52.408;16.826;2023-01-26T06:50:19;101452.98;;;4.46;79.32
26436;BME280;15351;52.408;16.826;2023-01-26T06:52:55;101453.16;;;4.46;79.46
26436;BME280;15351;52.408;16.826;2023-01-26T06:55:59;101448.96;;;4.48;79.35
26436;BME280;15351;52.408;16.826;2023-01-26T06:58:34;101452.02;;;4.47;79.25
26436;BME280;15351;52.408;16.826;2023-01-26T07:01:03;101455.58;;;4.45;79.14
26436;BME280;15351;52.408;16.826;2023-01-26T07:03:33;101458.66;;;4.44;79.28
26436;BME280;15351;52.408;16.826;2023-01-26T07:06:00;101454.77;;;4.44;79.39
26436;BME280;15351;52.408;16.826;2023-01-26T07:08:26;101458.90;;;4.43;79.40
26436;BME280;15351;52.408;16.826;2023-01-26T07:10:54;101466.61;;;4.45;79.28
26436;BME280;15351;52.408;16.826;2023-01-26T07:13:22;101466.45;;;4.45;79.22
26436;BME280;15351;52.408;16.826;2023-01-26T07:15:50;101465.33;;;4.45;79.38
26436;BME280;15351;52.408;16.826;2023-01-26T07:18:17;101464.80;;;4.48;79.55
26436;BME280;15351;52.408;16.826;2023-01-26T07:20:44;101460.02;;;4.49;79.45
26436;BME280;15351;52.408;16.826;2023-01-26T07:23:12;101462.52;;;4.52;79.25
26436;BME280;15351;52.408;16.826;2023-01-26T07:25:43;101461.05;;;4.48;79.04
26436;BME280;15351;52.408;16.826;2023-01-26T07:28:11;101464.47;;;4.43;79.09
26436;BME280;15351;52.408;16.826;2023-01-26T07:30:38;101461.52;;;4.44;79.11
26436;BME280;15351;52.408;16.826;2023-01-26T07:33:04;101463.91;;;4.45;79.26
26436;BME280;15351;52.408;16.826;2023-01-26T07:35:33;101460.06;;;4.47;79.14
26436;BME280;15351;52.408;16.826;2023-01-26T07:38:04;101459.34;;;4.47;79.29
26436;BME280;15351;52.408;16.826;2023-01-26T07:40:32;101461.20;;;4.48;79.33
26436;BME280;15351;52.408;16.826;2023-01-26T07:42:59;101461.10;;;4.52;79.32
26436;BME280;15351;52.408;16.826;2023-01-26T07:45:46;101462.49;;;4.59;79.45
26436;BME280;15351;52.408;16.826;2023-01-26T07:48:12;101460.15;;;4.64;78.99
26436;BME280;15351;52.408;16.826;2023-01-26T07:50:40;101460.38;;;4.63;78.93
26436;BME280;15351;52.408;16.826;2023-01-26T07:53:07;101464.73;;;4.69;79.07
26436;BME280;15351;52.408;16.826;2023-01-26T07:55:35;101470.39;;;4.72;79.11
26436;BME280;15351;52.408;16.826;2023-01-26T07:58:02;101472.13;;;4.77;78.79
26436;BME280;15351;52.408;16.826;2023-01-26T08:00:30;101471.44;;;4.75;78.49
26436;BME280;15351;52.408;16.826;2023-01-26T08:02:57;101474.77;;;4.71;78.66
26436;BME280;15351;52.408;16.826;2023-01-26T08:05:24;101471.95;;;4.73;78.67
26436;BME280;15351;52.408;16.826;2023-01-26T08:07:51;101476.23;;;4.73;78.83
26436;BME280;15351;52.408;16.826;2023-01-26T08:10:21;101468.91;;;4.71;78.51
26436;BME280;15351;52.408;16.826;2023-01-26T08:12:50;101466.77;;;4.68;78.51
26436;BME280;15351;52.408;16.826;2023-01-26T08:15:25;101466.13;;;4.65;78.66
26436;BME280;15351;52.408;16.826;2023-01-26T08:17:52;101463.14;;;4.66;78.71
26436;BME280;15351;52.408;16.826;2023-01-26T08:20:20;101462.19;;;4.70;78.72
26436;BME280;15351;52.408;16.826;2023-01-26T08:22:46;101456.82;;;4.73;78.64
26436;BME280;15351;52.408;16.826;2023-01-26T08:25:13;101455.89;;;4.73;78.43
26436;BME280;15351;52.408;16.826;2023-01-26T08:27:40;101450.76;;;4.70;78.63
26436;BME280;15351;52.408;16.826;2023-01-26T08:30:08;101452.34;;;4.71;78.74
26436;BME280;15351;52.408;16.826;2023-01-26T08:32:39;101448.75;;;4.73;78.79
26436;BME280;15351;52.408;16.826;2023-01-26T08:35:06;101448.56;;;4.76;78.61
26436;BME280;15351;52.408;16.826;2023-01-26T08:37:34;101446.77;;;4.76;78.61
26436;BME280;15351;52.408;16.826;2023-01-26T08:40:00;101442.48;;;4.74;78.74
26436;BME280;15351;52.408;16.826;2023-01-26T08:42:28;101446.59;;;4.76;78.83
26436;BME280;15351;52.408;16.826;2023-01-26T08:44:55;101444.59;;;4.79;78.76
26436;BME280;15351;52.408;16.826;2023-01-26T08:47:26;101442.44;;;4.79;78.50
26436;BME280;15351;52.408;16.826;2023-01-26T08:49:52;101447.61;;;4.79;78.46
26436;BME280;15351;52.408;16.826;2023-01-26T08:52:19;101453.10;;;4.84;78.46
26436;BME280;15351;52.408;16.826;2023-01-26T08:54:48;101450.96;;;4.86;78.32
26436;BME280;15351;52.408;16.826;2023-01-26T08:57:14;101456.59;;;4.82;78.08
26436;BME280;15351;52.408;16.826;2023-01-26T08:59:41;101456.87;;;4.83;78.15
26436;BME280;15351;52.408;16.826;2023-01-26T09:02:09;101463.64;;;4.86;78.07
26436;BME280;15351;52.408;16.826;2023-01-26T09:04:36;101458.50;;;4.83;77.94
26436;BME280;15351;52.408;16.826;2023-01-26T09:07:03;101456.86;;;4.81;78.19
26436;BME280;15351;52.408;16.826;2023-01-26T09:09:34;101455.42;;;4.86;78.25
26436;BME280;15351;52.408;16.826;2023-01-26T09:12:01;101460.48;;;4.90;78.10
26436;BME280;15351;52.408;16.826;2023-01-26T09:14:36;101463.22;;;4.93;78.00
26436;BME280;15351;52.408;16.826;2023-01-26T09:17:02;101466.01;;;4.90;77.93
26436;BME280;15351;52.408;16.826;2023-01-26T09:19:29;101464.75;;;4.87;78.18
26436;BME280;15351;52.408;16.826;2023-01-26T09:21:55;101466.16;;;4.94;78.19
26436;BME280;15351;52.408;16.826;2023-01-26T09:24:22;101460.17;;;5.03;78.03
26436;BME280;15351;52.408;16.826;2023-01-26T09:26:49;101454.77;;;5.07;78.04
26436;BME280;15351;52.408;16.826;2023-01-26T09:29:17;101457.61;;;5.10;77.95
26436;BME280;15351;52.408;16.826;2023-01-26T09:31:44;101457.70;;;5.11;77.97
26436;BME280;15351;52.408;16.826;2023-01-26T09:34:15;101456.73;;;5.09;77.89
26436;BME280;15351;52.408;16.826;2023-01-26T09:36:48;101460.39;;;5.16;77.87
26436;BME280;15351;52.408;16.826;2023-01-26T09:39:17;101455.17;;;5.16;77.72
26436;BME280;15351;52.408;16.826;2023-01-26T09:42:06;101454.32;;;5.18;77.71
26436;BME280;15351;52.408;16.826;2023-01-26T09:44:54;101453.29;;;5.17;77.77
26436;BME280;15351;52.408;16.826;2023-01-26T09:50:22;101461.11;;;5.20;77.47
26436;BME280;15351;52.408;16.826;2023-01-26T09:53:03;101455.52;;;5.19;77.45
26436;BME280;15351;52.408;16.826;2023-01-26T09:55:32;101450.27;;;5.17;77.60
26436;BME280;15351;52.408;16.826;2023-01-26T09:58:34;101448.46;;;5.18;77.60
26436;BME280;15351;52.408;16.826;2023-01-26T10:01:03;101451.97;;;5.16;77.49
26436;BME280;15351;52.408;16.826;2023-01-26T10:03:40;101451.85;;;5.18;77.46
26436;BME280;15351;52.408;16.826;2023-01-26T10:09:18;101452.04;;;5.18;77.55
26436;BME280;15351;52.408;16.826;2023-01-26T10:11:50;101446.08;;;5.21;77.45
26436;BME280;15351;52.408;16.826;2023-01-26T10:16:59;101437.45;;;5.19;77.11
26436;BME280;15351;52.408;16.826;2023-01-26T10:19:39;101449.16;;;5.13;77.11
26436;BME280;15351;52.408;16.826;2023-01-26T10:22:44;101445.73;;;5.11;77.45
26436;BME280;15351;52.408;16.826;2023-01-26T10:25:34;101440.30;;;5.17;77.25
26436;BME280;15351;52.408;16.826;2023-01-26T10:28:10;101434.97;;;5.19;77.03
26436;BME280;15351;52.408;16.826;2023-01-26T10:30:41;101430.85;;;5.14;77.01
26436;BME280;15351;52.408;16.826;2023-01-26T10:33:33;101429.44;;;5.10;77.28
26436;BME280;15351;52.408;16.826;2023-01-26T10:36:02;101426.98;;;5.09;77.33
26436;BME280;15351;52.408;16.826;2023-01-26T10:41:22;101425.14;;;5.10;77.27
26436;BME280;15351;52.408;16.826;2023-01-26T10:44:02;101420.91;;;5.14;77.44
26436;BME280;15351;52.408;16.826;2023-01-26T10:46:40;101420.52;;;5.21;77.56
26436;BME280;15351;52.408;16.826;2023-01-26T10:49:16;101413.00;;;5.28;77.33
26436;BME280;15351;52.408;16.826;2023-01-26T10:51:45;101407.88;;;5.30;77.16
26436;BME280;15351;52.408;16.826;2023-01-26T10:56:58;101401.71;;;5.34;76.85
26436;BME280;15351;52.408;16.826;2023-01-26T10:59:36;101396.45;;;5.28;76.56
26436;BME280;15351;52.408;16.826;2023-01-26T11:02:24;101399.11;;;5.24;76.62
26436;BME280;15351;52.408;16.826;2023-01-26T11:05:02;101400.41;;;5.16;76.77
26436;BME280;15351;52.408;16.826;2023-01-26T11:10:38;101393.64;;;5.23;76.93
26436;BME280;15351;52.408;16.826;2023-01-26T11:13:16;101385.77;;;5.26;76.74
26436;BME280;15351;52.408;16.826;2023-01-26T11:16:13;101380.34;;;5.20;76.50
26436;BME280;15351;52.408;16.826;2023-01-26T11:21:48;101376.58;;;5.09;76.90
26436;BME280;15351;52.408;16.826;2023-01-26T11:24:24;101376.67;;;5.01;76.85
26436;BME280;15351;52.408;16.826;2023-01-26T11:36:04;101363.52;;;5.09;77.30
26436;BME280;15351;52.408;16.826;2023-01-26T11:38:44;101360.38;;;5.16;77.14
26436;BME280;15351;52.408;16.826;2023-01-26T11:50:12;101352.90;;;5.15;76.80
26436;BME280;15351;52.408;16.826;2023-01-26T11:53:07;101347.96;;;5.12;76.73
26436;BME280;15351;52.408;16.826;2023-01-26T11:55:49;101345.67;;;5.10;76.82
26436;BME280;15351;52.408;16.826;2023-01-26T12:00:51;101332.95;;;5.09;76.58
26436;BME280;15351;52.408;16.826;2023-01-26T12:06:01;101331.17;;;4.89;76.70
26436;BME280;15351;52.408;16.826;2023-01-26T12:08:40;101333.16;;;4.91;76.95
26436;BME280;15351;52.408;16.826;2023-01-26T12:11:14;101334.03;;;4.95;76.95
26436;BME280;15351;52.408;16.826;2023-01-26T12:14:17;101328.46;;;4.92;76.75
26436;BME280;15351;52.408;16.826;2023-01-26T12:16:53;101324.05;;;4.91;76.94
26436;BME280;15351;52.408;16.826;2023-01-26T12:22:19;101315.49;;;4.95;76.90
26436;BME280;15351;52.408;16.826;2023-01-26T12:24:52;101306.54;;;4.92;76.93
26436;BME280;15351;52.408;16.826;2023-01-26T12:27:30;101308.65;;;4.90;76.91
26436;BME280;15351;52.408;16.826;2023-01-26T12:32:54;101309.11;;;4.86;77.06
26436;BME280;15351;52.408;16.826;2023-01-26T12:39:07;101314.06;;;4.89;77.18
26436;BME280;15351;52.408;16.826;2023-01-26T12:42:00;101314.86;;;4.92;77.01
26436;BME280;15351;52.408;16.826;2023-01-26T12:44:40;101318.00;;;4.89;77.22
26436;BME280;15351;52.408;16.826;2023-01-26T12:47:09;101315.51;;;4.98;77.34
26436;BME280;15351;52.408;16.826;2023-01-26T12:52:16;101311.94;;;4.95;76.68
26436;BME280;15351;52.408;16.826;2023-01-26T12:54:55;101310.02;;;4.88;76.81
26436;BME280;15351;52.408;16.826;2023-01-26T12:57:29;101308.09;;;4.88;77.07
26436;BME280;15351;52.408;16.826;2023-01-26T13:00:05;101309.13;;;4.90;77.27
26436;BME280;15351;52.408;16.826;2023-01-26T13:02:45;101307.09;;;4.94;77.03
26436;BME280;15351;52.408;16.826;2023-01-26T13:05:33;101306.33;;;4.92;76.91
26436;BME280;15351;52.408;16.826;2023-01-26T13:11:46;101301.42;;;4.84;77.11
26436;BME280;15351;52.408;16.826;2023-01-26T13:27:47;101297.80;;;4.92;76.44
26436;BME280;15351;52.408;16.826;2023-01-26T13:30:32;101302.92;;;4.94;76.41
26436;BME280;15351;52.408;16.826;2023-01-26T13:33:22;101306.11;;;4.90;76.54
26436;BME280;15351;52.408;16.826;2023-01-26T13:35:52;101307.60;;;4.94;76.78
26436;BME280;15351;52.408;16.826;2023-01-26T13:38:26;101303.23;;;4.97;76.60
26436;BME280;15351;52.408;16.826;2023-01-26T13:40:56;101302.17;;;4.97;76.33
26436;BME280;15351;52.408;16.826;2023-01-26T13:43:43;101302.20;;;4.92;76.52
26436;BME280;15351;52.408;16.826;2023-01-26T13:52:01;101305.98;;;5.01;76.28
26436;BME280;15351;52.408;16.826;2023-01-26T13:54:29;101312.84;;;5.02;76.37
26436;BME280;15351;52.408;16.826;2023-01-26T13:57:06;101308.77;;;5.06;76.21
26436;BME280;15351;52.408;16.826;2023-01-26T13:59:33;101311.41;;;5.04;76.15
26436;BME280;15351;52.408;16.826;2023-01-26T14:01:59;101303.83;;;5.01;76.04
26436;BME280;15351;52.408;16.826;2023-01-26T14:04:28;101300.94;;;4.97;75.96
26436;BME280;15351;52.408;16.826;2023-01-26T14:07:05;101301.19;;;4.90;76.09
26436;BME280;15351;52.408;16.826;2023-01-26T14:09:42;101301.77;;;4.87;76.47
26436;BME280;15351;52.408;16.826;2023-01-26T14:12:23;101304.83;;;4.86;76.58
26436;BME280;15351;52.408;16.826;2023-01-26T14:15:03;101304.73;;;4.85;76.45
26436;BME280;15351;52.408;16.826;2023-01-26T14:17:36;101304.82;;;4.84;76.45
26436;BME280;15351;52.408;16.826;2023-01-26T14:20:25;101304.31;;;4.84;76.56
26436;BME280;15351;52.408;16.826;2023-01-26T14:23:11;101305.16;;;4.82;76.77
26436;BME280;15351;52.408;16.826;2023-01-26T14:25:40;101302.17;;;4.90;76.92
26436;BME280;15351;52.408;16.826;2023-01-26T14:28:21;101302.26;;;4.94;76.51
26436;BME280;15351;52.408;16.826;2023-01-26T14:31:23;101299.66;;;4.93;76.46
26436;BME280;15351;52.408;16.826;2023-01-26T14:33:55;101305.53;;;4.91;76.47
26436;BME280;15351;52.408;16.826;2023-01-26T14:36:27;101308.23;;;4.90;76.70
26436;BME280;15351;52.408;16.826;2023-01-26T14:38:55;101304.64;;;4.91;76.60
26436;BME280;15351;52.408;16.826;2023-01-26T14:41:34;101310.90;;;4.88;76.42
26436;BME280;15351;52.408;16.826;2023-01-26T14:44:07;101311.34;;;4.87;76.59
26436;BME280;15351;52.408;16.826;2023-01-26T14:46:36;101321.20;;;4.89;76.62
26436;BME280;15351;52.408;16.826;2023-01-26T14:49:35;101320.72;;;4.90;76.60